sensor_id;sensor_type;location;lat;lon;timestamp;pressure;altitude;pressure_sealevel;temperature;humidity
9905;BME280;4991;43.566;27.820;2023-01-23T00:01:44;99934.59;;;7.06;100.00
9905;BME280;4991;43.566;27.820;2023-01-23T00:04:12;99931.63;;;7.08;100.00
9905;BME280;4991;43.566;27.820;2023-01-23T00:06:39;99938.41;;;7.10;100.00
9905;BME280;4991;43.566;27.820;2023-01-23T00:09:05;99939.63;;;6.98;100.00
9905;BME280;4991;43.566;27.820;2023-01-23T00:11:32;99950.59;;;6.86;100.00
9905;BME280;4991;43.566;27.820;2023-01-23T00:13:59;99953.25;;;7.03;100.00
9905;BME280;4991;43.566;27.820;2023-01-23T00:16:27;99959.41;;;6.98;100.00
9905;BME280;4991;43.566;27.820;2023-01-23T00:18:53;99972.56;;;6.90;100.00
9905;BME280;4991;43.566;27.820;2023-01-23T00:21:21;99966.97;;;6.96;100.00
9905;BME280;4991;43.566;27.820;2023-01-23T00:23:55;99972.69;;;7.00;100.00
9905;BME280;4991;43.566;27.820;2023-01-23T00:26:23;99974.84;;;6.98;100.00
9905;BME280;4991;43.566;27.820;2023-01-23T00:28:49;99962.03;;;6.93;100.00
9905;BME280;4991;43.566;27.820;2023-01-23T00:31:20;99961.69;;;6.85;100.00
9905;BME280;4991;43.566;27.820;2023-01-23T00:33:46;99978.22;;;6.88;100.00
9905;BME280;4991;43.566;27.820;2023-01-23T00:36:13;99981.44;;;6.85;100.00
9905;BME280;4991;43.566;27.820;2023-01-23T00:38:40;99972.06;;;6.71;100.00
9905;BME280;4991;43.566;27.820;2023-01-23T00:41:05;99984.75;;;6.71;100.00
9905;BME280;4991;43.566;27.820;2023-01-23T00:43:31;99982.19;;;6.81;100.00
9905;BME280;4991;43.566;27.820;2023-01-23T00:45:58;99983.69;;;6.72;100.00
9905;BME280;4991;43.566;27.820;2023-01-23T00:48:24;99989.91;;;6.72;100.00
9905;BME280;4991;43.566;27.820;2023-01-23T00:50:50;99996.16;;;6.73;100.00
9905;BME280;4991;43.566;27.820;2023-01-23T00:53:16;99987.03;;;6.79;100.00
9905;BME280;4991;43.566;27.820;2023-01-23T00:55:41;99989.16;;;6.77;100.00
9905;BME280;4991;43.566;27.820;2023-01-23T00:58:08;99991.31;;;6.75;100.00
9905;BME280;4991;43.566;27.820;2023-01-23T01:00:37;99993.88;;;6.65;100.00
9905;BME280;4991;43.566;27.820;2023-01-23T01:03:04;99996.34;;;6.66;100.00
9905;BME280;4991;43.566;27.820;2023-01-23T01:05:30;99995.69;;;6.59;100.00
9905;BME280;4991;43.566;27.820;2023-01-23T01:07:56;100001.50;;;6.68;100.00
9905;BME280;4991;43.566;27.820;2023-01-23T01:10:21;99996.66;;;6.70;100.00
9905;BME280;4991;43.566;27.820;2023-01-23T01:12:48;100005.06;;;6.51;100.00
9905;BME280;4991;43.566;27.820;2023-01-23T01:15:14;100007.19;;;6.49;100.00
9905;BME280;4991;43.566;27.820;2023-01-23T01:17:40;100006.13;;;6.50;100.00
9905;BME280;4991;43.566;27.820;2023-01-23T01:20:06;100014.88;;;6.57;100.00
9905;BME280;4991;43.566;27.820;2023-01-23T01:22:32;100016.44;;;6.53;100.00
9905;BME280;4991;43.566;27.820;2023-01-23T01:24:58;100020.22;;;6.52;100.00
9905;BME280;4991;43.566;27.820;2023-01-23T01:27:24;100016.84;;;6.45;100.00
9905;BME280;4991;43.566;27.820;2023-01-23T01:29:49;100011.78;;;6.49;100.00
9905;BME280;4991;43.566;27.820;2023-01-23T01:32:15;100016.59;;;6.47;100.00
9905;BME280;4991;43.566;27.820;2023-01-23T01:34:41;100012.78;;;6.43;100.00
9905;BME280;4991;43.566;27.820;2023-01-23T01:37:06;100019.06;;;6.48;100.00
9905;BME280;4991;43.566;27.820;2023-01-23T01:39:32;100020.56;;;6.39;100.00
9905;BME280;4991;43.566;27.820;2023-01-23T01:41:58;100019.16;;;6.37;100.00
9905;BME280;4991;43.566;27.820;2023-01-23T01:44:23;100024.31;;;6.38;100.00
9905;BME280;4991;43.566;27.820;2023-01-23T01:46:50;100023.53;;;6.38;100.00
9905;BME280;4991;43.566;27.820;2023-01-23T01:49:28;100023.84;;;6.25;100.00
9905;BME280;4991;43.566;27.820;2023-01-23T01:52:06;100021.63;;;6.22;100.00
9905;BME280;4991;43.566;27.820;2023-01-23T01:57:06;100019.56;;;6.29;100.00
9905;BME280;4991;43.566;27.820;2023-01-23T01:59:38;100022.13;;;6.19;100.00
9905;BME280;4991;43.566;27.820;2023-01-23T02:02:11;100017.44;;;6.14;100.00
9905;BME280;4991;43.566;27.820;2023-01-23T02:04:41;100020.16;;;6.14;100.00
9905;BME280;4991;43.566;27.820;2023-01-23T02:07:16;100024.47;;;6.15;100.00
9905;BME280;4991;43.566;27.820;2023-01-23T02:09:43;100029.91;;;6.15;100.00
9905;BME280;4991;43.566;27.820;2023-01-23T02:12:09;100029.97;;;6.20;100.00
9905;BME280;4991;43.566;27.820;2023-01-23T02:14:35;100024.81;;;6.19;100.00
9905;BME280;4991;43.566;27.820;2023-01-23T02:17:00;100038.09;;;6.20;100.00
9905;BME280;4991;43.566;27.820;2023-01-23T02:25:55;100021.06;;;6.03;100.00
9905;BME280;4991;43.566;27.820;2023-01-23T02:28:22;100025.88;;;6.01;100.00
9905;BME280;4991;43.566;27.820;2023-01-23T02:30:48;100024.22;;;6.00;100.00
9905;BME280;4991;43.566;27.820;2023-01-23T02:35:43;100018.88;;;5.89;100.00
9905;BME280;4991;43.566;27.820;2023-01-23T02:38:09;100019.47;;;5.91;100.00
9905;BME280;4991;43.566;27.820;2023-01-23T02:40:38;100030.22;;;6.02;100.00
9905;BME280;4991;43.566;27.820;2023-01-23T02:43:08;100023.59;;;5.93;100.00
9905;BME280;4991;43.566;27.820;2023-01-23T02:45:35;100030.38;;;5.96;100.00
9905;BME280;4991;43.566;27.820;2023-01-23T02:48:01;100029.25;;;5.80;100.00
9905;BME280;4991;43.566;27.820;2023-01-23T02:50:27;100034.44;;;5.82;100.00
9905;BME280;4991;43.566;27.820;2023-01-23T02:52:53;100035.44;;;5.92;100.00
9905;BME280;4991;43.566;27.820;2023-01-23T02:55:20;100028.75;;;5.95;100.00
9905;BME280;4991;43.566;27.820;2023-01-23T02:57:47;100030.28;;;5.91;100.00
9905;BME280;4991;43.566;27.820;2023-01-23T03:00:13;100037.66;;;5.95;100.00
9905;BME280;4991;43.566;27.820;2023-01-23T03:02:48;100041.72;;;5.81;100.00
9905;BME280;4991;43.566;27.820;2023-01-23T03:05:14;100043.94;;;5.84;100.00
9905;BME280;4991;43.566;27.820;2023-01-23T03:07:40;100046.66;;;5.84;100.00
9905;BME280;4991;43.566;27.820;2023-01-23T03:10:08;100042.66;;;5.87;100.00
9905;BME280;4991;43.566;27.820;2023-01-23T03:12:34;100044.63;;;5.91;100.00
9905;BME280;4991;43.566;27.820;2023-01-23T03:15:00;100050.88;;;5.92;100.00
9905;BME280;4991;43.566;27.820;2023-01-23T03:17:26;100058.28;;;5.85;100.00
9905;BME280;4991;43.566;27.820;2023-01-23T03:19:53;100061.91;;;5.79;100.00
9905;BME280;4991;43.566;27.820;2023-01-23T03:22:20;100067.31;;;5.79;100.00
9905;BME280;4991;43.566;27.820;2023-01-23T03:24:45;100064.22;;;5.70;100.00
9905;BME280;4991;43.566;27.820;2023-01-23T03:27:11;100050.31;;;5.50;100.00
9905;BME280;4991;43.566;27.820;2023-01-23T03:29:37;100058.16;;;5.52;100.00
9905;BME280;4991;43.566;27.820;2023-01-23T03:32:21;100051.09;;;5.51;100.00
9905;BME280;4991;43.566;27.820;2023-01-23T03:34:47;100059.06;;;5.57;100.00
9905;BME280;4991;43.566;27.820;2023-01-23T03:37:12;100060.13;;;5.56;100.00
9905;BME280;4991;43.566;27.820;2023-01-23T03:39:39;100062.34;;;5.59;100.00
9905;BME280;4991;43.566;27.820;2023-01-23T03:42:23;100062.44;;;5.64;100.00
9905;BME280;4991;43.566;27.820;2023-01-23T03:44:51;100069.88;;;5.69;100.00
9905;BME280;4991;43.566;27.820;2023-01-23T03:47:17;100059.84;;;5.69;100.00
9905;BME280;4991;43.566;27.820;2023-01-23T03:49:42;100052.91;;;5.73;100.00
9905;BME280;4991;43.566;27.820;2023-01-23T03:52:08;100051.59;;;5.76;100.00
9905;BME280;4991;43.566;27.820;2023-01-23T03:54:34;100044.56;;;5.75;100.00
9905;BME280;4991;43.566;27.820;2023-01-23T03:56:59;100059.16;;;5.62;100.00
9905;BME280;4991;43.566;27.820;2023-01-23T03:59:25;100066.72;;;5.60;100.00
9905;BME280;4991;43.566;27.820;2023-01-23T04:01:52;100064.63;;;5.51;100.00
9905;BME280;4991;43.566;27.820;2023-01-23T04:04:18;100066.16;;;5.47;100.00
9905;BME280;4991;43.566;27.820;2023-01-23T04:06:45;100060.41;;;5.43;100.00
9905;BME280;4991;43.566;27.820;2023-01-23T04:09:10;100062.97;;;5.50;100.00
9905;BME280;4991;43.566;27.820;2023-01-23T04:11:37;100070.84;;;5.51;100.00
9905;BME280;4991;43.566;27.820;2023-01-23T04:14:03;100065.34;;;5.46;100.00
9905;BME280;4991;43.566;27.820;2023-01-23T04:16:28;100065.00;;;5.43;100.00
9905;BME280;4991;43.566;27.820;2023-01-23T04:18:54;100076.16;;;5.46;100.00
9905;BME280;4991;43.566;27.820;2023-01-23T04:21:20;100086.97;;;5.35;100.00
9905;BME280;4991;43.566;27.820;2023-01-23T04:23:45;100088.63;;;5.36;100.00
9905;BME280;4991;43.566;27.820;2023-01-23T04:26:12;100082.03;;;5.43;100.00
9905;BME280;4991;43.566;27.820;2023-01-23T04:28:37;100086.50;;;5.38;100.00
9905;BME280;4991;43.566;27.820;2023-01-23T04:31:03;100089.53;;;5.41;100.00
9905;BME280;4991;43.566;27.820;2023-01-23T04:33:29;100090.88;;;5.27;100.00
9905;BME280;4991;43.566;27.820;2023-01-23T04:35:58;100094.88;;;5.24;100.00
9905;BME280;4991;43.566;27.820;2023-01-23T04:38:25;100089.34;;;5.19;100.00
9905;BME280;4991;43.566;27.820;2023-01-23T04:40:52;100084.06;;;5.24;100.00
9905;BME280;4991;43.566;27.820;2023-01-23T04:43:18;100098.28;;;5.20;100.00
9905;BME280;4991;43.566;27.820;2023-01-23T04:45:44;100099.69;;;5.22;100.00
9905;BME280;4991;43.566;27.820;2023-01-23T04:48:11;100106.16;;;5.21;100.00
9905;BME280;4991;43.566;27.820;2023-01-23T04:50:38;100106.38;;;5.20;100.00
9905;BME280;4991;43.566;27.820;2023-01-23T04:53:03;100123.63;;;5.19;100.00
9905;BME280;4991;43.566;27.820;2023-01-23T04:55:29;100116.50;;;5.13;100.00
9905;BME280;4991;43.566;27.820;2023-01-23T04:57:55;100117.31;;;5.13;100.00
9905;BME280;4991;43.566;27.820;2023-01-23T05:00:21;100119.06;;;5.19;100.00
9905;BME280;4991;43.566;27.820;2023-01-23T05:02:48;100119.19;;;5.13;100.00
9905;BME280;4991;43.566;27.820;2023-01-23T05:05:14;100122.38;;;5.10;100.00
9905;BME280;4991;43.566;27.820;2023-01-23T05:07:42;100125.06;;;5.10;100.00
9905;BME280;4991;43.566;27.820;2023-01-23T05:10:09;100125.91;;;5.10;100.00
9905;BME280;4991;43.566;27.820;2023-01-23T05:12:35;100130.59;;;5.03;100.00
9905;BME280;4991;43.566;27.820;2023-01-23T05:15:00;100133.41;;;4.97;100.00
9905;BME280;4991;43.566;27.820;2023-01-23T05:17:26;100129.66;;;4.98;100.00
9905;BME280;4991;43.566;27.820;2023-01-23T05:19:51;100135.28;;;4.96;100.00
9905;BME280;4991;43.566;27.820;2023-01-23T05:22:17;100127.88;;;5.03;100.00
9905;BME280;4991;43.566;27.820;2023-01-23T05:24:43;100134.00;;;5.10;100.00
9905;BME280;4991;43.566;27.820;2023-01-23T05:27:09;100142.78;;;5.06;100.00
9905;BME280;4991;43.566;27.820;2023-01-23T05:29:35;100145.16;;;5.14;100.00
9905;BME280;4991;43.566;27.820;2023-01-23T05:32:01;100149.97;;;5.12;100.00
9905;BME280;4991;43.566;27.820;2023-01-23T05:34:26;100157.22;;;5.11;100.00
9905;BME280;4991;43.566;27.820;2023-01-23T05:36:52;100161.69;;;5.06;100.00
9905;BME280;4991;43.566;27.820;2023-01-23T05:39:18;100155.59;;;4.99;100.00
9905;BME280;4991;43.566;27.820;2023-01-23T05:41:43;100170.59;;;4.95;100.00
9905;BME280;4991;43.566;27.820;2023-01-23T05:44:09;100165.34;;;5.00;100.00
9905;BME280;4991;43.566;27.820;2023-01-23T05:46:34;100164.38;;;4.94;100.00
9905;BME280;4991;43.566;27.820;2023-01-23T05:49:00;100171.69;;;4.94;100.00
9905;BME280;4991;43.566;27.820;2023-01-23T05:51:26;100182.25;;;4.95;100.00
9905;BME280;4991;43.566;27.820;2023-01-23T05:53:59;100188.31;;;4.91;100.00
9905;BME280;4991;43.566;27.820;2023-01-23T05:56:24;100187.50;;;4.79;100.00
9905;BME280;4991;43.566;27.820;2023-01-23T05:58:50;100172.22;;;4.84;100.00
9905;BME280;4991;43.566;27.820;2023-01-23T06:01:16;100184.59;;;4.92;100.00
9905;BME280;4991;43.566;27.820;2023-01-23T06:03:42;100183.16;;;5.01;100.00
9905;BME280;4991;43.566;27.820;2023-01-23T06:06:08;100188.19;;;4.97;100.00
9905;BME280;4991;43.566;27.820;2023-01-23T06:08:33;100180.56;;;4.94;100.00
9905;BME280;4991;43.566;27.820;2023-01-23T06:10:59;100191.13;;;4.96;100.00
9905;BME280;4991;43.566;27.820;2023-01-23T06:13:26;100194.91;;;4.95;100.00
9905;BME280;4991;43.566;27.820;2023-01-23T06:15:52;100179.66;;;5.00;100.00
9905;BME280;4991;43.566;27.820;2023-01-23T06:18:18;100195.13;;;4.93;100.00
9905;BME280;4991;43.566;27.820;2023-01-23T06:20:44;100185.31;;;4.99;100.00
9905;BME280;4991;43.566;27.820;2023-01-23T06:23:10;100187.16;;;4.98;100.00
9905;BME280;4991;43.566;27.820;2023-01-23T06:25:36;100188.19;;;4.97;100.00
9905;BME280;4991;43.566;27.820;2023-01-23T06:28:02;100191.72;;;4.98;100.00
9905;BME280;4991;43.566;27.820;2023-01-23T06:30:27;100182.72;;;4.92;100.00
9905;BME280;4991;43.566;27.820;2023-01-23T06:32:53;100177.41;;;4.86;100.00
9905;BME280;4991;43.566;27.820;2023-01-23T06:35:19;100186.81;;;4.95;100.00
9905;BME280;4991;43.566;27.820;2023-01-23T06:37:44;100192.22;;;4.95;100.00
9905;BME280;4991;43.566;27.820;2023-01-23T06:40:10;100193.97;;;5.01;100.00
9905;BME280;4991;43.566;27.820;2023-01-23T06:42:38;100192.09;;;5.01;100.00
9905;BME280;4991;43.566;27.820;2023-01-23T06:45:05;100202.66;;;5.03;100.00
9905;BME280;4991;43.566;27.820;2023-01-23T06:47:31;100209.34;;;5.00;100.00
9905;BME280;4991;43.566;27.820;2023-01-23T06:49:56;100212.06;;;5.00;100.00
9905;BME280;4991;43.566;27.820;2023-01-23T06:52:22;100206.31;;;5.08;100.00
9905;BME280;4991;43.566;27.820;2023-01-23T06:54:48;100206.91;;;4.99;100.00
9905;BME280;4991;43.566;27.820;2023-01-23T06:57:13;100209.84;;;5.09;100.00
9905;BME280;4991;43.566;27.820;2023-01-23T06:59:39;100215.91;;;5.04;100.00
9905;BME280;4991;43.566;27.820;2023-01-23T07:02:05;100205.34;;;5.03;100.00
9905;BME280;4991;43.566;27.820;2023-01-23T07:04:31;100211.00;;;5.01;100.00
9905;BME280;4991;43.566;27.820;2023-01-23T07:06:57;100212.97;;;5.06;100.00
9905;BME280;4991;43.566;27.820;2023-01-23T07:09:23;100217.47;;;5.00;100.00
9905;BME280;4991;43.566;27.820;2023-01-23T07:11:49;100221.31;;;5.04;100.00
9905;BME280;4991;43.566;27.820;2023-01-23T07:14:14;100227.78;;;5.03;100.00
9905;BME280;4991;43.566;27.820;2023-01-23T07:16:40;100220.53;;;5.04;100.00
9905;BME280;4991;43.566;27.820;2023-01-23T07:19:06;100215.19;;;4.97;100.00
9905;BME280;4991;43.566;27.820;2023-01-23T07:21:32;100223.53;;;4.96;100.00
9905;BME280;4991;43.566;27.820;2023-01-23T07:23:58;100227.03;;;4.85;100.00
9905;BME280;4991;43.566;27.820;2023-01-23T07:26:23;100236.47;;;4.94;100.00
9905;BME280;4991;43.566;27.820;2023-01-23T07:28:49;100247.38;;;4.87;100.00
9905;BME280;4991;43.566;27.820;2023-01-23T07:31:15;100238.94;;;4.95;100.00
9905;BME280;4991;43.566;27.820;2023-01-23T07:33:40;100236.34;;;5.00;100.00
9905;BME280;4991;43.566;27.820;2023-01-23T07:36:06;100235.28;;;5.01;100.00
9905;BME280;4991;43.566;27.820;2023-01-23T07:38:33;100238.34;;;4.93;100.00
9905;BME280;4991;43.566;27.820;2023-01-23T07:40:59;100238.94;;;4.95;100.00
9905;BME280;4991;43.566;27.820;2023-01-23T07:43:25;100240.56;;;4.96;100.00
9905;BME280;4991;43.566;27.820;2023-01-23T07:45:51;100250.09;;;4.99;100.00
9905;BME280;4991;43.566;27.820;2023-01-23T07:48:17;100255.69;;;4.97;100.00
9905;BME280;4991;43.566;27.820;2023-01-23T07:50:42;100253.22;;;4.96;100.00
9905;BME280;4991;43.566;27.820;2023-01-23T07:53:08;100249.72;;;4.95;100.00
9905;BME280;4991;43.566;27.820;2023-01-23T07:55:36;100256.28;;;4.99;100.00
9905;BME280;4991;43.566;27.820;2023-01-23T07:58:02;100254.28;;;4.95;100.00
9905;BME280;4991;43.566;27.820;2023-01-23T08:00:28;100250.88;;;4.99;100.00
9905;BME280;4991;43.566;27.820;2023-01-23T08:02:55;100253.81;;;4.86;100.00
9905;BME280;4991;43.566;27.820;2023-01-23T08:05:21;100249.00;;;4.88;100.00
9905;BME280;4991;43.566;27.820;2023-01-23T08:07:47;100246.53;;;4.87;100.00
9905;BME280;4991;43.566;27.820;2023-01-23T08:10:12;100248.91;;;4.95;100.00
9905;BME280;4991;43.566;27.820;2023-01-23T08:12:38;100249.50;;;4.97;100.00
9905;BME280;4991;43.566;27.820;2023-01-23T08:15:04;100255.25;;;5.00;100.00
9905;BME280;4991;43.566;27.820;2023-01-23T08:17:30;100257.00;;;5.06;100.00
9905;BME280;4991;43.566;27.820;2023-01-23T08:19:55;100252.66;;;4.94;100.00
9905;BME280;4991;43.566;27.820;2023-01-23T08:22:21;100260.19;;;5.03;100.00
9905;BME280;4991;43.566;27.820;2023-01-23T08:24:46;100266.19;;;5.05;100.00
9905;BME280;4991;43.566;27.820;2023-01-23T08:27:12;100274.03;;;5.07;100.00
9905;BME280;4991;43.566;27.820;2023-01-23T08:29:38;100273.91;;;5.02;100.00
9905;BME280;4991;43.566;27.820;2023-01-23T08:32:04;100266.06;;;5.00;100.00
9905;BME280;4991;43.566;27.820;2023-01-23T08:34:30;100285.19;;;4.99;100.00
9905;BME280;4991;43.566;27.820;2023-01-23T08:36:56;100283.53;;;4.98;100.00
9905;BME280;4991;43.566;27.820;2023-01-23T08:39:22;100286.47;;;5.08;100.00
9905;BME280;4991;43.566;27.820;2023-01-23T08:41:49;100276.59;;;4.90;100.00
9905;BME280;4991;43.566;27.820;2023-01-23T08:44:15;100277.78;;;5.06;100.00
9905;BME280;4991;43.566;27.820;2023-01-23T08:46:40;100273.56;;;5.10;100.00
9905;BME280;4991;43.566;27.820;2023-01-23T08:49:07;100267.81;;;5.06;100.00
9905;BME280;4991;43.566;27.820;2023-01-23T08:51:34;100269.69;;;5.06;100.00
9905;BME280;4991;43.566;27.820;2023-01-23T08:53:59;100264.75;;;5.03;100.00
9905;BME280;4991;43.566;27.820;2023-01-23T08:56:25;100258.22;;;5.10;100.00
9905;BME280;4991;43.566;27.820;2023-01-23T08:58:51;100259.84;;;5.11;100.00
9905;BME280;4991;43.566;27.820;2023-01-23T09:01:24;100259.69;;;4.95;100.00
9905;BME280;4991;43.566;27.820;2023-01-23T09:03:50;100264.84;;;4.96;100.00
9905;BME280;4991;43.566;27.820;2023-01-23T09:06:19;100265.09;;;4.95;100.00
9905;BME280;4991;43.566;27.820;2023-01-23T09:08:45;100272.00;;;4.91;100.00
9905;BME280;4991;43.566;27.820;2023-01-23T09:11:12;100266.69;;;4.84;100.00
9905;BME280;4991;43.566;27.820;2023-01-23T09:13:38;100259.53;;;4.78;100.00
9905;BME280;4991;43.566;27.820;2023-01-23T09:16:05;100258.94;;;4.76;100.00
9905;BME280;4991;43.566;27.820;2023-01-23T09:18:33;100269.75;;;4.88;100.00
9905;BME280;4991;43.566;27.820;2023-01-23T09:20:59;100265.31;;;4.93;100.00
9905;BME280;4991;43.566;27.820;2023-01-23T09:23:25;100266.03;;;4.89;100.00
9905;BME280;4991;43.566;27.820;2023-01-23T09:25:50;100259.31;;;4.91;100.00
9905;BME280;4991;43.566;27.820;2023-01-23T09:28:16;100261.44;;;5.01;100.00
9905;BME280;4991;43.566;27.820;2023-01-23T09:30:42;100256.06;;;5.01;100.00
9905;BME280;4991;43.566;27.820;2023-01-23T09:33:07;100243.34;;;4.78;100.00
9905;BME280;4991;43.566;27.820;2023-01-23T09:35:33;100256.47;;;4.75;100.00
9905;BME280;4991;43.566;27.820;2023-01-23T09:37:59;100259.53;;;4.78;100.00
9905;BME280;4991;43.566;27.820;2023-01-23T09:40:31;100254.97;;;4.79;100.00
9905;BME280;4991;43.566;27.820;2023-01-23T09:43:19;100239.56;;;4.79;100.00
9905;BME280;4991;43.566;27.820;2023-01-23T09:45:56;100246.88;;;4.79;100.00
9905;BME280;4991;43.566;27.820;2023-01-23T09:48:41;100242.53;;;4.89;100.00
9905;BME280;4991;43.566;27.820;2023-01-23T09:51:23;100248.41;;;4.98;100.00
9905;BME280;4991;43.566;27.820;2023-01-23T09:53:51;100241.59;;;4.84;100.00
9905;BME280;4991;43.566;27.820;2023-01-23T09:56:40;100247.78;;;4.73;100.00
9905;BME280;4991;43.566;27.820;2023-01-23T09:59:26;100236.78;;;4.86;100.00
9905;BME280;4991;43.566;27.820;2023-01-23T10:01:53;100235.84;;;4.80;100.00
9905;BME280;4991;43.566;27.820;2023-01-23T10:04:19;100242.50;;;4.78;100.00
9905;BME280;4991;43.566;27.820;2023-01-23T10:07:13;100241.13;;;4.87;100.00
9905;BME280;4991;43.566;27.820;2023-01-23T10:10:02;100233.25;;;4.74;100.00
9905;BME280;4991;43.566;27.820;2023-01-23T10:20:54;100228.38;;;4.64;100.00
9905;BME280;4991;43.566;27.820;2023-01-23T10:26:21;100230.28;;;4.64;100.00
9905;BME280;4991;43.566;27.820;2023-01-23T10:28:50;100226.41;;;4.71;100.00
9905;BME280;4991;43.566;27.820;2023-01-23T10:31:39;100221.03;;;4.71;100.00
9905;BME280;4991;43.566;27.820;2023-01-23T10:37:04;100221.72;;;4.67;100.00
9905;BME280;4991;43.566;27.820;2023-01-23T10:42:21;100226.16;;;4.61;100.00
9905;BME280;4991;43.566;27.820;2023-01-23T10:44:48;100227.22;;;4.60;100.00
9905;BME280;4991;43.566;27.820;2023-01-23T10:49:54;100230.97;;;4.59;100.00
9905;BME280;4991;43.566;27.820;2023-01-23T10:52:35;100222.84;;;4.59;100.00
9905;BME280;4991;43.566;27.820;2023-01-23T10:55:23;100220.66;;;4.68;100.00
9905;BME280;4991;43.566;27.820;2023-01-23T10:57:53;100218.28;;;4.60;100.00
9905;BME280;4991;43.566;27.820;2023-01-23T11:00:44;100218.78;;;4.68;100.00
9905;BME280;4991;43.566;27.820;2023-01-23T11:03:24;100217.84;;;4.74;100.00
9905;BME280;4991;43.566;27.820;2023-01-23T11:05:59;100220.78;;;4.73;100.00
9905;BME280;4991;43.566;27.820;2023-01-23T11:08:31;100215.16;;;4.74;100.00
9905;BME280;4991;43.566;27.820;2023-01-23T11:13:46;100205.41;;;4.62;100.00
9905;BME280;4991;43.566;27.820;2023-01-23T11:16:17;100210.09;;;4.66;100.00
9905;BME280;4991;43.566;27.820;2023-01-23T11:19:37;100206.81;;;4.64;100.00
9905;BME280;4991;43.566;27.820;2023-01-23T11:22:02;100199.34;;;4.78;100.00
9905;BME280;4991;43.566;27.820;2023-01-23T11:24:36;100206.38;;;4.79;100.00
9905;BME280;4991;43.566;27.820;2023-01-23T11:27:27;100204.16;;;4.76;100.00
9905;BME280;4991;43.566;27.820;2023-01-23T11:30:02;100202.63;;;4.80;100.00
9905;BME280;4991;43.566;27.820;2023-01-23T11:35:18;100205.28;;;4.57;100.00
9905;BME280;4991;43.566;27.820;2023-01-23T11:37:46;100214.09;;;4.64;100.00
9905;BME280;4991;43.566;27.820;2023-01-23T11:40:19;100217.44;;;4.48;100.00
9905;BME280;4991;43.566;27.820;2023-01-23T11:42:45;100212.97;;;4.42;100.00
9905;BME280;4991;43.566;27.820;2023-01-23T11:59:05;100202.75;;;4.32;100.00
9905;BME280;4991;43.566;27.820;2023-01-23T12:07:24;100223.69;;;4.01;100.00
9905;BME280;4991;43.566;27.820;2023-01-23T12:12:58;100228.28;;;3.82;100.00
9905;BME280;4991;43.566;27.820;2023-01-23T12:21:41;100230.00;;;3.94;100.00
9905;BME280;4991;43.566;27.820;2023-01-23T12:27:02;100235.22;;;3.71;100.00
9905;BME280;4991;43.566;27.820;2023-01-23T12:40:47;100248.25;;;3.56;100.00
9905;BME280;4991;43.566;27.820;2023-01-23T12:43:34;100250.72;;;3.58;100.00
9905;BME280;4991;43.566;27.820;2023-01-23T12:46:22;100250.56;;;3.53;100.00
9905;BME280;4991;43.566;27.820;2023-01-23T12:49:03;100257.28;;;3.44;100.00
9905;BME280;4991;43.566;27.820;2023-01-23T12:51:36;100260.66;;;3.39;100.00
9905;BME280;4991;43.566;27.820;2023-01-23T12:54:06;100264.25;;;3.27;100.00
9905;BME280;4991;43.566;27.820;2023-01-23T12:56:38;100252.69;;;3.26;100.00
9905;BME280;4991;43.566;27.820;2023-01-23T13:02:17;100259.25;;;3.30;100.00
9905;BME280;4991;43.566;27.820;2023-01-23T13:05:15;100257.66;;;3.05;100.00
9905;BME280;4991;43.566;27.820;2023-01-23T13:07:46;100258.78;;;3.15;100.00
9905;BME280;4991;43.566;27.820;2023-01-23T13:13:17;100267.78;;;3.03;100.00
9905;BME280;4991;43.566;27.820;2023-01-23T13:15:43;100267.91;;;2.90;100.00
9905;BME280;4991;43.566;27.820;2023-01-23T13:18:25;100267.78;;;2.78;100.00
9905;BME280;4991;43.566;27.820;2023-01-23T13:20:57;100268.84;;;2.71;100.00
9905;BME280;4991;43.566;27.820;2023-01-23T13:23:44;100279.59;;;2.71;100.00
9905;BME280;4991;43.566;27.820;2023-01-23T13:28:51;100276.47;;;2.42;100.00
9905;BME280;4991;43.566;27.820;2023-01-23T13:31:41;100282.56;;;2.25;100.00
9905;BME280;4991;43.566;27.820;2023-01-23T13:34:33;100282.75;;;2.30;100.00
9905;BME280;4991;43.566;27.820;2023-01-23T13:42:38;100289.03;;;2.04;100.00
9905;BME280;4991;43.566;27.820;2023-01-23T13:45:27;100298.75;;;2.12;100.00
9905;BME280;4991;43.566;27.820;2023-01-23T13:51:20;100304.69;;;2.27;100.00
9905;BME280;4991;43.566;27.820;2023-01-23T13:53:49;100294.97;;;2.26;100.00
9905;BME280;4991;43.566;27.820;2023-01-23T13:56:35;100295.59;;;2.21;100.00
9905;BME280;4991;43.566;27.820;2023-01-23T13:59:37;100298.28;;;2.21;100.00
9905;BME280;4991;43.566;27.820;2023-01-23T14:05:26;100298.06;;;2.23;100.00
9905;BME280;4991;43.566;27.820;2023-01-23T14:08:00;100304.69;;;2.27;100.00
9905;BME280;4991;43.566;27.820;2023-01-23T14:10:30;100299.13;;;2.22;100.00
9905;BME280;4991;43.566;27.820;2023-01-23T14:13:06;100297.09;;;2.11;100.00
9905;BME280;4991;43.566;27.820;2023-01-23T14:15:33;100296.00;;;2.25;100.00
9905;BME280;4991;43.566;27.820;2023-01-23T14:18:33;100299.91;;;2.29;100.00
9905;BME280;4991;43.566;27.820;2023-01-23T14:21:29;100311.75;;;2.15;100.00
9905;BME280;4991;43.566;27.820;2023-01-23T14:24:00;100312.81;;;2.14;100.00
9905;BME280;4991;43.566;27.820;2023-01-23T14:26:33;100305.56;;;2.14;100.00
9905;BME280;4991;43.566;27.820;2023-01-23T14:29:00;100305.75;;;2.19;100.00
9905;BME280;4991;43.566;27.820;2023-01-23T14:31:31;100306.41;;;2.08;100.00
9905;BME280;4991;43.566;27.820;2023-01-23T14:34:05;100315.09;;;2.10;100.00
9905;BME280;4991;43.566;27.820;2023-01-23T14:36:40;100315.69;;;2.12;100.00
9905;BME280;4991;43.566;27.820;2023-01-23T14:39:06;100325.63;;;2.12;100.00
9905;BME280;4991;43.566;27.820;2023-01-23T14:41:37;100329.94;;;2.13;100.00
9905;BME280;4991;43.566;27.820;2023-01-23T14:44:04;100334.91;;;2.16;100.00
9905;BME280;4991;43.566;27.820;2023-01-23T14:46:38;100337.38;;;2.17;100.00
9905;BME280;4991;43.566;27.820;2023-01-23T14:49:06;100336.56;;;2.17;100.00
9905;BME280;4991;43.566;27.820;2023-01-23T14:51:33;100334.69;;;2.17;100.00